createdAt,value
2019-01-19T00:00:27.694Z,99795.09
2019-01-19T00:03:31.146Z,99794.31
2019-01-19T00:06:56.505Z,99786.73
2019-01-19T00:09:40.638Z,99783.68
2019-01-19T00:12:57.656Z,99781.58
2019-01-19T00:16:05.138Z,99785.46
2019-01-19T00:19:19.141Z,99783.27
2019-01-19T00:22:14.475Z,99780.53
2019-01-19T00:25:39.244Z,99780.41
2019-01-19T00:29:33.257Z,99778.63
2019-01-19T00:32:57.734Z,99779.25
2019-01-19T00:36:13.127Z,99780.33
2019-01-19T00:39:38.060Z,99775.65
2019-01-19T00:43:01.021Z,99775.97
2019-01-19T00:46:27.570Z,99777.02
2019-01-19T00:49:20.443Z,99770.80
2019-01-19T00:52:51.877Z,99777.53
2019-01-19T00:55:51.756Z,99782.80
2019-01-19T00:58:42.078Z,99787.95
2019-01-19T01:02:26.188Z,99785.94
2019-01-19T01:05:31.477Z,99786.90
2019-01-19T01:08:50.244Z,99790.89
2019-01-19T01:12:09.903Z,99793.08
2019-01-19T01:15:24.759Z,99789.03
2019-01-19T01:18:15.171Z,99794.68
2019-01-19T01:21:29.420Z,99795.29
2019-01-19T01:24:41.584Z,99798.89
2019-01-19T01:28:22.672Z,99798.18
2019-01-19T01:31:28.666Z,99801.46
2019-01-19T01:34:49.419Z,99729.13
2019-01-19T01:37:44.942Z,99798.16
2019-01-19T01:41:08.801Z,99797.16
2019-01-19T01:44:25.862Z,99799.66
2019-01-19T01:48:09.766Z,99796.53
2019-01-19T01:51:16.427Z,99794.71
2019-01-19T01:54:11.788Z,99796.73
2019-01-19T01:56:39.607Z,99791.76
2019-01-19T01:59:49.992Z,99794.02
2019-01-19T02:03:17.872Z,99793.06
2019-01-19T02:06:25.568Z,99787.87
2019-01-19T02:09:48.691Z,99789.77
2019-01-19T02:13:00.013Z,99788.02
2019-01-19T02:16:46.695Z,99785.73
2019-01-19T02:19:38.056Z,99782.37
2019-01-19T02:23:23.255Z,99786.62
2019-01-19T02:27:06.454Z,99787.72
2019-01-19T02:30:43.220Z,99789.49
2019-01-19T02:34:19.869Z,99785.68
2019-01-19T02:37:34.773Z,99783.12
2019-01-19T02:40:44.823Z,99782.87
2019-01-19T02:44:06.895Z,99779.67
2019-01-19T02:47:17.620Z,99774.70
2019-01-19T02:50:46.044Z,99771.38
2019-01-19T02:54:26.911Z,99772.97
2019-01-19T02:57:44.130Z,99728.91
2019-01-19T03:01:05.343Z,99766.93
2019-01-19T03:04:14.701Z,99759.97
2019-01-19T03:07:58.144Z,99762.33
2019-01-19T03:11:33.773Z,99758.02
2019-01-19T03:15:12.214Z,99760.23
2019-01-19T03:18:59.729Z,99762.36
2019-01-19T03:22:24.006Z,99762.81
2019-01-19T03:25:37.454Z,99757.45
2019-01-19T03:29:13.670Z,99757.59
2019-01-19T03:32:54.697Z,99755.93
2019-01-19T03:36:27.176Z,99758.95
2019-01-19T03:40:09.275Z,99754.75
2019-01-19T03:43:30.093Z,99755.87
2019-01-19T03:46:48.351Z,99757.52
2019-01-19T03:50:44.568Z,99752.02
2019-01-19T03:54:10.783Z,99750.23
2019-01-19T03:57:25.156Z,99741.77
2019-01-19T04:00:43.823Z,99736.14
2019-01-19T04:04:08.934Z,99734.61
2019-01-19T04:07:34.871Z,99736.45
2019-01-19T04:10:39.897Z,99736.91
2019-01-19T04:14:06.954Z,99729.23
2019-01-19T04:17:43.050Z,99728.52
2019-01-19T04:21:18.049Z,99726.10
2019-01-19T04:23:53.509Z,99728.11
2019-01-19T04:26:43.230Z,99717.70
2019-01-19T04:29:11.045Z,99725.89
2019-01-19T04:31:38.855Z,99720.23
2019-01-19T04:34:07.043Z,99716.21
2019-01-19T04:36:35.792Z,99720.94
2019-01-19T04:39:18.874Z,99720.23
2019-01-19T04:42:06.999Z,99726.58
2019-01-19T04:44:34.750Z,99718.76
2019-01-19T04:47:02.936Z,99722.05
2019-01-19T04:49:30.733Z,99719.80
2019-01-19T04:51:58.581Z,99713.84
2019-01-19T04:54:26.461Z,99720.13
2019-01-19T04:57:13.724Z,99717.70
2019-01-19T04:59:41.522Z,99710.20
2019-01-19T05:02:09.327Z,99712.31
2019-01-19T05:04:37.108Z,99714.53
2019-01-19T05:07:05.013Z,99705.14
2019-01-19T05:09:32.776Z,99709.05
2019-01-19T05:12:00.574Z,99709.48
2019-01-19T05:14:28.351Z,99711.41
2019-01-19T05:17:07.550Z,99709.95
2019-01-19T05:19:35.379Z,99708.48
2019-01-19T05:22:03.502Z,99701.98
2019-01-19T05:24:31.299Z,99704.34
2019-01-19T05:26:59.071Z,99704.27
2019-01-19T05:29:26.881Z,99706.56
2019-01-19T05:31:54.712Z,99699.86
2019-01-19T05:34:22.496Z,99701.71
2019-01-19T05:36:50.301Z,99702.64
2019-01-19T05:39:18.080Z,99706.27
2019-01-19T05:41:45.875Z,99708.89
2019-01-19T05:44:13.714Z,99707.12
2019-01-19T05:46:41.470Z,99707.88
2019-01-19T05:49:09.238Z,99708.33
2019-01-19T05:51:37.046Z,99703.21
2019-01-19T05:54:04.849Z,99707.40
2019-01-19T05:56:32.666Z,99714.30
2019-01-19T05:59:00.694Z,99714.92
2019-01-19T06:01:29.253Z,99717.65
2019-01-19T06:03:57.042Z,99717.55
2019-01-19T06:06:25.242Z,99720.03
2019-01-19T06:08:53.199Z,99714.95
2019-01-19T06:11:20.946Z,99714.50
2019-01-19T06:13:48.750Z,99714.80
2019-01-19T06:16:16.617Z,99715.44
2019-01-19T06:19:09.651Z,99717.88
2019-01-19T06:21:49.145Z,99715.97
2019-01-19T06:24:16.997Z,99713.88
2019-01-19T06:26:44.851Z,99715.70
2019-01-19T06:29:12.622Z,99717.38
2019-01-19T06:31:40.429Z,99709.86
2019-01-19T06:34:08.293Z,99711.09
2019-01-19T06:36:36.115Z,99710.13
2019-01-19T06:39:07.887Z,99707.95
2019-01-19T06:41:35.673Z,99707.69
2019-01-19T06:44:03.449Z,99709.88
2019-01-19T06:46:31.260Z,99711.91
2019-01-19T06:48:59.211Z,99716.34
2019-01-19T06:51:26.944Z,99721.14
2019-01-19T06:54:01.493Z,99721.73
2019-01-19T06:56:26.334Z,99714.20
2019-01-19T06:58:54.267Z,99715.66
2019-01-19T07:01:22.069Z,99720.58
2019-01-19T07:03:49.885Z,99718.59
2019-01-19T07:06:17.668Z,99720.58
2019-01-19T07:08:45.505Z,99717.31
2019-01-19T07:11:13.276Z,99719.11
2019-01-19T07:13:41.090Z,99712.14
2019-01-19T07:16:08.859Z,99717.45
2019-01-19T07:18:36.694Z,99724.84
2019-01-19T07:21:04.464Z,99720.73
2019-01-19T07:23:32.275Z,99720.03
2019-01-19T07:26:00.099Z,99720.81
2019-01-19T07:28:27.877Z,99722.33
2019-01-19T07:30:55.676Z,99719.30
2019-01-19T07:33:23.477Z,99715.88
2019-01-19T07:35:51.684Z,99723.91
2019-01-19T07:39:05.764Z,99722.64
2019-01-19T07:41:33.639Z,99718.33
2019-01-19T07:44:01.431Z,99724.50
2019-01-19T07:46:29.963Z,99722.43
2019-01-19T07:48:57.701Z,99718.01
2019-01-19T07:51:25.785Z,99715.81
2019-01-19T07:53:53.729Z,99717.41
2019-01-19T07:56:21.518Z,99724.18
2019-01-19T07:58:49.281Z,99727.41
2019-01-19T08:01:17.054Z,99722.40
2019-01-19T08:03:44.856Z,99716.79
2019-01-19T08:06:12.610Z,99714.00
2019-01-19T08:08:40.423Z,99715.58
2019-01-19T08:11:08.215Z,99713.75
2019-01-19T08:13:36.034Z,99714.53
2019-01-19T08:16:03.898Z,99716.77
2019-01-19T08:18:31.933Z,99715.31
2019-01-19T08:20:59.736Z,99712.74
2019-01-19T08:23:27.522Z,99696.37
2019-01-19T08:25:55.351Z,99718.58
2019-01-19T08:28:23.223Z,99718.19
2019-01-19T08:30:51.066Z,99714.59
2019-01-19T08:33:18.858Z,99714.31
2019-01-19T08:35:47.294Z,99718.70
2019-01-19T08:38:15.218Z,99714.53
2019-01-19T08:40:43.037Z,99717.29
2019-01-19T08:43:18.577Z,99712.52
2019-01-19T08:45:46.516Z,99710.70
2019-01-19T08:48:15.325Z,99711.02
2019-01-19T08:50:43.441Z,99702.27
2019-01-19T08:53:11.258Z,99700.51
2019-01-19T08:55:39.175Z,99701.41
2019-01-19T08:58:27.184Z,99695.22
2019-01-19T09:00:55.111Z,99699.37
2019-01-19T09:03:22.851Z,99694.05
2019-01-19T09:05:50.743Z,99692.44
2019-01-19T09:08:18.529Z,99689.53
2019-01-19T09:10:46.351Z,99688.72
2019-01-19T09:13:14.175Z,99696.96
2019-01-19T09:16:12.585Z,99690.02
2019-01-19T09:18:40.462Z,99692.86
2019-01-19T09:21:08.203Z,99688.86
2019-01-19T09:23:41.974Z,99680.09
2019-01-19T09:26:13.341Z,99686.38
2019-01-19T09:28:41.095Z,99688.67
2019-01-19T09:31:08.877Z,99683.97
2019-01-19T09:33:36.666Z,99678.58
2019-01-19T09:36:04.548Z,99680.05
2019-01-19T09:38:32.332Z,99675.17
2019-01-19T09:41:00.168Z,99675.09
2019-01-19T09:43:28.006Z,99677.45
2019-01-19T09:45:55.854Z,99677.69
2019-01-19T09:48:23.654Z,99640.84
2019-01-19T09:50:51.471Z,99676.05
2019-01-19T09:53:19.335Z,99672.56
2019-01-19T09:55:47.214Z,99679.00
2019-01-19T09:58:15.000Z,99672.16
2019-01-19T10:00:45.808Z,99670.75
2019-01-19T10:03:32.038Z,99670.09
2019-01-19T10:05:59.921Z,99664.81
2019-01-19T10:08:27.793Z,99664.63
2019-01-19T10:10:56.123Z,99663.97
2019-01-19T10:13:24.309Z,99659.31
2019-01-19T10:15:52.611Z,99652.49
2019-01-19T10:18:21.244Z,99656.28
2019-01-19T10:20:49.152Z,99653.21
2019-01-19T10:23:16.996Z,99645.47
2019-01-19T10:25:44.819Z,99643.09
2019-01-19T10:28:12.734Z,99644.42
2019-01-19T10:30:40.535Z,99646.06
2019-01-19T10:33:08.432Z,99639.31
2019-01-19T10:35:36.235Z,99641.66
2019-01-19T10:38:04.047Z,99636.00
2019-01-19T10:40:31.979Z,99631.12
2019-01-19T10:42:59.760Z,99632.59
2019-01-19T10:45:27.596Z,99623.62
2019-01-19T10:47:55.390Z,99627.36
2019-01-19T10:50:24.186Z,99619.63
2019-01-19T10:52:52.230Z,99613.19
2019-01-19T10:55:20.291Z,99611.77
2019-01-19T10:57:48.107Z,99612.03
2019-01-19T11:00:25.643Z,99605.05
2019-01-19T11:02:54.000Z,99606.81
2019-01-19T11:05:24.025Z,99594.98
2019-01-19T11:07:51.898Z,99588.70
2019-01-19T11:10:25.455Z,99580.38
2019-01-19T11:13:04.068Z,99573.67
2019-01-19T11:15:31.852Z,99578.04
2019-01-19T11:18:00.085Z,99566.11
2019-01-19T11:20:28.866Z,99564.53
2019-01-19T11:22:58.437Z,99565.79
2019-01-19T11:25:27.521Z,99558.99
2019-01-19T11:28:00.746Z,99555.62
2019-01-19T11:30:30.252Z,99548.56
2019-01-19T11:32:58.218Z,99545.69
2019-01-19T11:35:26.375Z,99543.83
2019-01-19T11:37:59.483Z,99543.23
2019-01-19T11:40:33.654Z,99531.44
2019-01-19T11:43:01.504Z,99520.05
2019-01-19T11:45:29.261Z,99508.31
2019-01-19T11:47:58.281Z,99502.50
2019-01-19T11:50:36.866Z,99495.81
2019-01-19T11:53:06.325Z,99482.30
2019-01-19T11:55:37.066Z,99477.53
2019-01-19T11:58:07.223Z,99474.67
2019-01-19T12:00:41.299Z,99478.13
2019-01-19T12:03:12.311Z,99467.95
2019-01-19T12:05:40.081Z,99467.20
2019-01-19T12:08:09.724Z,99465.58
2019-01-19T12:10:39.506Z,99466.64
2019-01-19T12:13:09.083Z,99459.34
2019-01-19T12:15:37.630Z,99453.86
2019-01-19T12:18:05.689Z,99450.13
2019-01-19T12:20:44.574Z,99448.25
2019-01-19T12:23:12.610Z,99450.41
2019-01-19T12:25:40.431Z,99450.38
2019-01-19T12:28:08.289Z,99441.14
2019-01-19T12:30:36.841Z,99435.94
2019-01-19T12:33:04.898Z,99435.23
2019-01-19T12:35:32.726Z,99436.58
2019-01-19T12:38:00.717Z,99436.26
2019-01-19T12:40:28.590Z,99427.27
2019-01-19T12:43:00.163Z,99424.84
2019-01-19T12:45:35.231Z,99424.39
2019-01-19T12:48:03.025Z,99418.36
2019-01-19T12:50:30.863Z,99419.24
2019-01-19T12:52:58.683Z,99416.09
2019-01-19T12:55:26.504Z,99417.81
2019-01-19T12:57:54.320Z,99416.52
2019-01-19T13:00:24.499Z,99414.03
2019-01-19T13:02:52.564Z,99400.30
2019-01-19T13:05:40.309Z,99400.14
2019-01-19T13:08:38.699Z,99388.91
2019-01-19T13:11:37.048Z,99388.80
2019-01-19T13:14:05.080Z,99386.39
2019-01-19T13:17:05.040Z,99387.44
2019-01-19T13:20:30.234Z,99380.83
2019-01-19T13:24:20.151Z,99376.61
2019-01-19T13:27:57.982Z,99363.61
2019-01-19T13:31:28.239Z,99352.20
2019-01-19T13:34:34.525Z,99350.63
2019-01-19T13:37:46.787Z,99351.00
2019-01-19T13:41:17.696Z,99348.52
2019-01-19T13:45:11.484Z,99345.18
2019-01-19T13:48:29.382Z,99338.70
2019-01-19T13:51:31.840Z,99338.55
2019-01-19T13:55:06.795Z,99340.43
2019-01-19T13:58:25.010Z,99337.42
2019-01-19T14:01:20.191Z,99335.59
2019-01-19T14:04:31.794Z,99331.21
2019-01-19T14:07:53.323Z,99327.45
2019-01-19T14:10:44.614Z,99319.78
2019-01-19T14:14:18.388Z,99314.02
2019-01-19T14:17:35.332Z,99310.41
2019-01-19T14:20:23.533Z,99307.70
2019-01-19T14:23:26.705Z,99301.38
2019-01-19T14:26:52.549Z,99306.70
2019-01-19T14:30:09.680Z,99302.91
2019-01-19T14:33:26.897Z,99305.38
2019-01-19T14:36:59.984Z,99267.28
2019-01-19T14:40:11.280Z,99302.11
2019-01-19T14:43:34.803Z,99292.13
2019-01-19T14:46:40.881Z,99290.55
2019-01-19T14:50:46.388Z,99286.22
2019-01-19T14:54:10.162Z,99285.48
2019-01-19T14:57:11.502Z,99275.66
2019-01-19T15:00:46.778Z,99284.55
2019-01-19T15:03:48.671Z,99277.94
2019-01-19T15:07:12.752Z,99274.11
2019-01-19T15:10:35.390Z,99275.42
2019-01-19T15:14:00.627Z,99278.28
2019-01-19T15:17:20.254Z,99279.19
2019-01-19T15:20:51.563Z,99278.90
2019-01-19T15:24:00.874Z,99278.50
2019-01-19T15:27:43.321Z,99272.68
2019-01-19T15:30:52.089Z,99273.28
2019-01-19T15:34:38.005Z,99269.52
2019-01-19T15:38:20.355Z,99266.22
2019-01-19T15:41:56.055Z,99264.20
2019-01-19T15:45:08.535Z,99272.52
2019-01-19T15:48:20.841Z,99270.00
2019-01-19T15:51:53.793Z,99269.99
2019-01-19T15:55:09.693Z,99266.64
2019-01-19T15:58:41.182Z,99270.15
2019-01-19T16:02:13.277Z,99267.13
2019-01-19T16:05:17.366Z,99267.20
2019-01-19T16:08:31.215Z,99265.62
2019-01-19T16:11:27.402Z,99271.38
2019-01-19T16:14:55.123Z,99271.44
2019-01-19T16:18:06.296Z,99272.35
2019-01-19T16:21:42.169Z,99272.25
2019-01-19T16:24:26.393Z,99274.64
2019-01-19T16:27:59.771Z,99272.23
2019-01-19T16:31:27.680Z,99274.69
2019-01-19T16:34:57.142Z,99280.41
2019-01-19T16:38:17.711Z,99282.36
2019-01-19T16:41:53.672Z,99280.85
2019-01-19T16:45:36.124Z,99274.30
2019-01-19T16:49:00.357Z,99275.96
2019-01-19T16:52:34.085Z,99272.81
2019-01-19T16:55:59.058Z,99273.73
2019-01-19T16:59:22.225Z,99272.67
2019-01-19T17:02:57.426Z,99272.48
2019-01-19T17:06:13.727Z,99270.55
2019-01-19T17:09:32.680Z,99266.42
2019-01-19T17:12:56.443Z,99270.52
2019-01-19T17:16:05.310Z,99270.36
2019-01-19T17:19:20.812Z,99269.56
2019-01-19T17:22:52.826Z,99273.53
2019-01-19T17:26:45.900Z,99276.30
2019-01-19T17:30:24.428Z,99280.83
2019-01-19T17:33:10.789Z,99273.68
2019-01-19T17:36:44.953Z,99275.80
2019-01-19T17:40:13.794Z,99280.45
2019-01-19T17:43:32.894Z,99279.66
2019-01-19T17:46:57.769Z,99273.88
2019-01-19T17:50:14.235Z,99274.85
2019-01-19T17:53:54.298Z,99275.36
2019-01-19T17:56:55.815Z,99276.79
2019-01-19T18:00:30.558Z,99281.88
2019-01-19T18:03:35.867Z,99270.67
2019-01-19T18:06:54.750Z,99270.02
2019-01-19T18:10:21.276Z,99267.40
2019-01-19T18:13:28.584Z,99263.72
2019-01-19T18:16:57.953Z,99269.56
2019-01-19T18:20:14.535Z,99272.57
2019-01-19T18:23:31.338Z,99273.47
2019-01-19T18:26:52.807Z,99235.23
2019-01-19T18:30:16.535Z,99273.95
2019-01-19T18:33:36.353Z,99272.35
2019-01-19T18:37:38.477Z,99278.77
2019-01-19T18:40:51.003Z,99272.16
2019-01-19T18:44:20.900Z,99269.44
2019-01-19T18:47:44.742Z,99268.73
2019-01-19T18:51:22.706Z,99265.69
2019-01-19T18:54:37.862Z,99269.75
2019-01-19T18:57:52.118Z,99270.17
2019-01-19T19:01:05.962Z,99267.95
2019-01-19T19:04:34.221Z,99268.28
2019-01-19T19:07:39.965Z,99266.75
2019-01-19T19:10:59.866Z,99266.20
2019-01-19T19:14:24.679Z,99268.02
2019-01-19T19:18:02.975Z,99266.38
2019-01-19T19:21:13.878Z,99270.20
2019-01-19T19:24:37.678Z,99267.44
2019-01-19T19:28:05.455Z,99268.28
2019-01-19T19:31:35.504Z,99273.77
2019-01-19T19:35:07.621Z,99277.55
2019-01-19T19:38:19.626Z,99280.09
2019-01-19T19:41:49.829Z,99278.20
2019-01-19T19:45:10.592Z,99276.23
2019-01-19T19:48:25.647Z,99282.74
2019-01-19T19:51:36.262Z,99288.49
2019-01-19T19:54:04.293Z,99286.53
2019-01-19T19:56:30.596Z,99286.73
2019-01-19T19:58:58.423Z,99293.56
2019-01-19T20:01:26.238Z,99288.22
2019-01-19T20:03:54.120Z,99287.34
2019-01-19T20:06:21.967Z,99284.05
2019-01-19T20:08:49.844Z,99281.95
2019-01-19T20:11:17.811Z,99284.20
2019-01-19T20:13:45.647Z,99281.03
2019-01-19T20:16:13.475Z,99289.39
2019-01-19T20:18:41.278Z,99289.91
2019-01-19T20:21:09.119Z,99289.55
2019-01-19T20:23:41.089Z,99297.30
2019-01-19T20:26:08.958Z,99289.42
2019-01-19T20:28:37.118Z,99288.22
2019-01-19T20:31:04.893Z,99283.00
2019-01-19T20:33:32.717Z,99292.92
2019-01-19T20:36:00.518Z,99290.99
2019-01-19T20:38:33.515Z,99285.88
2019-01-19T20:41:01.369Z,99288.62
2019-01-19T20:43:48.683Z,99287.73
2019-01-19T20:46:16.697Z,99280.98
2019-01-19T20:48:44.566Z,99278.02
2019-01-19T20:51:13.246Z,99246.34
2019-01-19T20:53:41.279Z,99283.55
2019-01-19T20:56:09.132Z,99281.38
2019-01-19T20:58:37.600Z,99283.19
2019-01-19T21:01:06.122Z,99282.06
2019-01-19T21:03:54.035Z,99276.28
2019-01-19T21:06:24.601Z,99283.15
2019-01-19T21:08:53.294Z,99282.27
2019-01-19T21:11:21.567Z,99285.14
2019-01-19T21:14:09.370Z,99285.98
2019-01-19T21:16:37.640Z,99286.55
2019-01-19T21:19:24.981Z,99284.57
2019-01-19T21:21:52.819Z,99288.82
2019-01-19T21:24:20.593Z,99295.13
2019-01-19T21:26:48.437Z,99291.02
2019-01-19T21:29:16.217Z,99291.95
2019-01-19T21:31:44.178Z,99287.48
2019-01-19T21:34:12.100Z,99290.05
2019-01-19T21:36:39.921Z,99295.03
2019-01-19T21:39:07.886Z,99296.67
2019-01-19T21:41:55.314Z,99296.48
2019-01-19T21:44:23.209Z,99295.40
2019-01-19T21:46:56.138Z,99288.61
2019-01-19T21:49:23.935Z,99289.53
2019-01-19T21:51:51.742Z,99290.77
2019-01-19T21:54:19.547Z,99287.31
2019-01-19T21:56:48.170Z,99293.28
2019-01-19T21:59:15.988Z,99291.80
2019-01-19T22:01:43.844Z,99293.64
2019-01-19T22:04:11.668Z,99296.92
2019-01-19T22:06:39.502Z,99298.56
2019-01-19T22:09:08.067Z,99293.22
2019-01-19T22:11:37.057Z,99299.59
2019-01-19T22:14:05.062Z,99296.83
2019-01-19T22:16:32.846Z,99298.95
2019-01-19T22:19:00.657Z,99295.66
2019-01-19T22:21:29.761Z,99298.50
2019-01-19T22:23:57.579Z,99297.21
2019-01-19T22:26:26.908Z,99302.06
2019-01-19T22:29:14.226Z,99301.10
2019-01-19T22:31:42.086Z,99297.53
2019-01-19T22:34:09.887Z,99303.77
2019-01-19T22:36:38.562Z,99297.81
2019-01-19T22:39:11.519Z,99290.26
2019-01-19T22:41:39.305Z,99296.16
2019-01-19T22:44:07.139Z,99296.48
2019-01-19T22:46:34.961Z,99291.17
2019-01-19T22:49:02.848Z,99296.59
2019-01-19T22:51:30.800Z,99296.83
2019-01-19T22:53:58.616Z,99293.14
2019-01-19T22:56:26.417Z,99290.00
2019-01-19T22:58:54.217Z,99289.42
2019-01-19T23:01:43.102Z,99286.22
2019-01-19T23:04:10.909Z,99288.74
2019-01-19T23:06:38.716Z,99284.73
2019-01-19T23:09:10.099Z,99288.30
2019-01-19T23:11:38.091Z,99290.78
2019-01-19T23:14:07.839Z,99290.38
2019-01-19T23:16:35.671Z,99291.48
2019-01-19T23:19:03.803Z,99287.89
2019-01-19T23:21:31.609Z,99287.41
2019-01-19T23:23:59.425Z,99282.67
2019-01-19T23:26:28.097Z,99278.81
2019-01-19T23:28:55.913Z,99281.31
2019-01-19T23:31:23.896Z,99280.15
2019-01-19T23:33:51.861Z,99277.05
2019-01-19T23:36:19.669Z,99276.17
2019-01-19T23:38:47.550Z,99276.95
2019-01-19T23:41:15.383Z,99281.92
2019-01-19T23:43:43.264Z,99284.69
2019-01-19T23:46:11.114Z,99282.86
2019-01-19T23:48:38.971Z,99284.86
2019-01-19T23:51:06.820Z,99283.05
2019-01-19T23:53:34.627Z,99282.45
2019-01-19T23:56:02.436Z,99280.11
2019-01-19T23:58:30.354Z,99283.53
